Friday, November 24, 2017, 5:41 AM GMT
Back to Local

CWOD, Normandin

Location: , , Canada Lat: 48.833
Local Time: 5:41 AM GMT ( 5:41 GMT) Lon: -72.55
Time Zone: GMT Elev: 449 ft

Show me the last for .
Show Decoded

2017-11-24 05:00 METAR CWOD 240500Z AUTO 30020G27KT M05/M10 RMK AO1 PRESRR SOG 03 3016 PK WND
                 31027/0451 SLP044 T10511104 =
2017-11-24 04:00 METAR CWOD 240400Z AUTO 23009KT M04/M06 RMK AO1 SOG 03 5011 SLP023 T10351055 =
2017-11-24 03:00 METAR CWOD 240300Z AUTO 22013KT M04/M07 RMK AO1 SOG 03 7022 SLP020 T10371071 =
2017-11-24 02:00 METAR CWOD 240200Z AUTO 20010KT M05/M08 RMK AO1 SOG 03 6023 SLP029 T10451080 =
2017-11-24 01:00 METAR CWOD 240100Z AUTO 21010KT M05/M08 RMK AO1 SOG 03 8020 SLP035 T10511082 =
2017-11-24 00:00 METAR CWOD 240000Z AUTO 19007KT M05/M08 RMK AO1 SOG 03 8015 SLP044 T10481084 =
2017-11-23 23:00 METAR CWOD 232300Z AUTO 21011KT M05/M09 RMK AO1 SOG 03 6012 SLP052 T10481091 =
2017-11-23 22:00 METAR CWOD 232200Z AUTO 21013KT M05/M09 RMK AO1 SOG 03 6013 SLP055 T10491090 =
2017-11-23 21:00 METAR CWOD 232100Z AUTO 18008KT M05/M09 RMK AO1 SOG 03 6017 SLP058 T10521093 =
2017-11-23 20:00 METAR CWOD 232000Z AUTO 19012KT M05/M09 RMK AO1 SOG 03 6020 SLP064 T10501093 =
2017-11-23 19:00 METAR CWOD 231900Z AUTO 19008KT M04/M10 RMK AO1 SOG 03 6033 SLP068 T10351096 =
2017-11-23 18:00 METAR CWOD 231800Z AUTO 20009KT M05/M10 RMK AO1 SOG 03 6039 SLP075 T10461098 =
2017-11-23 17:00 METAR CWOD 231700Z AUTO 20010KT M05/M11 RMK AO1 SOG 03 8040 SLP085 T10481112 =
2017-11-23 16:00 METAR CWOD 231600Z AUTO 21011KT M06/M12 RMK AO1 SOG 03 8027 SLP102 T10561115 =
2017-11-23 15:00 METAR CWOD 231500Z AUTO 22009KT M07/M12 RMK AO1 SOG 03 8010 SLP116 T10691123 =
2017-11-23 14:00 METAR CWOD 231400Z AUTO 23009KT M08/M12 RMK AO1 SOG 03 6006 SLP126 T10821124 =
2017-11-23 13:00 METAR CWOD 231300Z AUTO 24008KT M11/M14 RMK AO1 SOG 03 5007 SLP131 T11081138 =
2017-11-23 12:00 METAR CWOD 231200Z AUTO 25007KT M11/M14 RMK AO1 SOG 03 8015 SLP127 T11141139 =
2017-11-23 11:00 METAR CWOD 231100Z AUTO 26008KT M09/M12 RMK AO1 SOG 03 6015 SLP132 T10891121 =
2017-11-23 10:00 METAR CWOD 231000Z AUTO 28006KT M09/M12 RMK AO1 SOG 03 8012 SLP137 T10871118 =
2017-11-23 09:00 METAR CWOD 230900Z AUTO 29006KT M08/M11 RMK AO1 SOG 03 8011 SLP141 T10751111 =
2017-11-23 08:00 METAR CWOD 230800Z AUTO 29006KT M07/M11 RMK AO1 SOG 03 6010 SLP147 T10741107 =
2017-11-23 07:00 METAR CWOD 230700Z AUTO 29005KT M08/M11 RMK AO1 SOG 03 6012 SLP149 T10761108 =
2017-11-23 06:00 METAR CWOD 230600Z AUTO 29005KT M08/M11 RMK AO1 SOG 03 6015 SLP152 T10781108 =

Support USWX by starting your Amazon purchase here.